Hobart, OK

9:59 AM CDT on September 22, 2014 (GMT -0500)
Hobart Municipal | Change Station
CLOSE
Current Station
Airport
Location: Hobart,
Elevation: 1565 ft
Nearby Weather Stations

Elev 1565 ft 34.99 °N, 99.05 °W | Updated 6 minutes ago

Overcast
Overcast
67 °F
Feels Like 67 °F
N
10
Wind Variable Wind from ESE

Today
High -- | Low -- °F
--% Chance of Precip.
Yesterday
High -- | Low -- °F
Precip. -- in
7:24 AM 7:33 PM
Waning Crescent, 3% visible
Pressure 30.27 in
Visibility 10.0 miles
Clouds Overcast 6500 ft
Dew Point 50 °F
Humidity 54%
Rainfall 0.00 in
Snow Depth Not available.
UV 1 out of 12
Pollen 10.50 out of 12
Air Quality Not available.
Flu Activity Not available.
METAR KHBR 221453Z AUTO 11009KT 10SM OVC065 19/10 A3031 RMK AO2 SLP251 T01940100 51014

More Conditions Fewer Conditions

Pressure 30.27 in
Visibility 10.0 miles
Clouds Overcast 6500 ft
Dew Point 50 °F
Humidity 54%
Rainfall 0.00 in
Snow Depth Not available.
UV 1 out of 12
Pollen 10.50 out of 12
Air Quality Not available.
Flu Activity Not available.
METAR KHBR 221453Z AUTO 11009KT 10SM OVC065 19/10 A3031 RMK AO2 SLP251 T01940100 51014

More Conditions Fewer Conditions

10-Day Weather Forecast

Almanac

Astronomy

Sep. 22, 2014 Rise Set
Actual Time 7:24 AM CDT 7:33 PM CDT
Civil Twilight 6:59 AM CDT 7:58 PM CDT
Nautical Twilight 6:29 AM CDT 8:27 PM CDT
Astronomical Twilight 5:59 AM CDT 8:57 PM CDT
Moon 5:56 AM CDT 6:40 PM CDT
Length of Visible Light 12h 59m
Length of Day
12h 08m
Tomorrow will be 2m 10s shorter.
Waning Crescent, 3% of the Moon is Illuminated
Today
Waning Crescent
Sep 24
New
Oct 1
First Quarter
Oct 8
Full
Oct 15
Last Quarter

Today's Extremes

State Highs State Lows

Community

WunderPhotos

Upload Photos

1,755,459 photos uploaded!

WunderBlogs® & News

Nearby

Snow Depth

Station Depth Elevation
No new snow has been reported.

Earthquake Activity

City Distance Mag. Time & Date
Medford, Oklahoma 145 miles 3.2 2:10 AM CDT
2014-09-20
Luther, Oklahoma 120 miles 2.7 4:47 PM CDT
2014-09-19
Guthrie, Oklahoma 108 miles 3.6 12:23 PM CDT
2014-09-19
Jones, Oklahoma 109 miles 2.8 1:13 AM CDT
2014-09-19
Minimum magnitude displayed is 2.5.

Coastal Water Temperatures

Place Temperature
No Stations Reporting

Nearby Weather Stations